createdAt,value
2022-11-24T00:02:13.401Z,100588.91
2022-11-24T00:04:40.892Z,100605.25
2022-11-24T00:07:09.577Z,100597.78
2022-11-24T00:09:36.784Z,100600.19
2022-11-24T00:12:04.406Z,100606.84
2022-11-24T00:14:31.980Z,100608.47
2022-11-24T00:16:59.514Z,100617.97
2022-11-24T00:19:26.797Z,100629.03
2022-11-24T00:21:53.992Z,100625.13
2022-11-24T00:24:22.616Z,100625.13
2022-11-24T00:26:49.858Z,100619.59
2022-11-24T00:29:17.083Z,100631.56
2022-11-24T00:31:44.255Z,100631.19
2022-11-24T00:34:13.788Z,100633.91
2022-11-24T00:36:41.856Z,100638.31
2022-11-24T00:39:12.183Z,100643.75
2022-11-24T00:41:41.376Z,100645.78
2022-11-24T00:44:09.250Z,100643.34
2022-11-24T00:46:36.565Z,100638.66
2022-11-24T00:49:04.363Z,100642.25
2022-11-24T00:51:31.844Z,100644.28
2022-11-24T00:54:00.746Z,100645.59
2022-11-24T00:56:29.486Z,100646.03
2022-11-24T00:58:58.119Z,100653.97
2022-11-24T01:01:27.291Z,100647.69
2022-11-24T01:03:54.848Z,100665.13
2022-11-24T01:06:24.144Z,100663.91
2022-11-24T01:08:51.709Z,100658.75
2022-11-24T01:11:21.394Z,100673.00
2022-11-24T01:13:49.909Z,100676.97
2022-11-24T01:16:21.583Z,100683.66
2022-11-24T01:18:49.481Z,100690.72
2022-11-24T01:21:17.827Z,100691.47
2022-11-24T01:23:45.026Z,100698.91
2022-11-24T01:26:14.788Z,100709.94
2022-11-24T01:28:47.076Z,100710.75
2022-11-24T01:31:15.796Z,100715.84
2022-11-24T01:33:44.438Z,100721.75
2022-11-24T01:36:12.100Z,100713.88
2022-11-24T01:38:39.438Z,100728.88
2022-11-24T01:41:09.872Z,100722.59
2022-11-24T01:43:37.507Z,100731.25
2022-11-24T01:46:12.672Z,100732.34
2022-11-24T01:48:43.457Z,100733.47
2022-11-24T01:51:16.386Z,100735.03
2022-11-24T01:53:48.942Z,100737.44
2022-11-24T01:56:16.299Z,100735.91
2022-11-24T01:58:45.753Z,100732.81
2022-11-24T02:01:13.638Z,100739.16
2022-11-24T02:03:43.802Z,100738.34
2022-11-24T02:06:16.761Z,100741.50
2022-11-24T02:08:56.707Z,100748.59
2022-11-24T02:11:27.956Z,100748.13
2022-11-24T02:13:57.070Z,100762.66
2022-11-24T02:16:24.315Z,100755.53
2022-11-24T02:18:51.866Z,100770.94
2022-11-24T02:21:20.567Z,100773.66
2022-11-24T02:23:54.839Z,100773.69
2022-11-24T02:26:38.857Z,100780.00
2022-11-24T02:29:06.224Z,100778.78
2022-11-24T02:31:33.877Z,100786.25
2022-11-24T02:34:01.309Z,100786.63
2022-11-24T02:36:28.604Z,100791.31
2022-11-24T02:38:55.818Z,100791.06
2022-11-24T02:41:26.874Z,100789.56
2022-11-24T02:43:58.262Z,100799.88
2022-11-24T02:46:25.767Z,100795.06
2022-11-24T02:48:53.261Z,100798.63
2022-11-24T02:51:20.458Z,100807.28
2022-11-24T02:53:47.691Z,100807.75
2022-11-24T02:56:14.906Z,100815.22
2022-11-24T02:58:42.171Z,100811.66
2022-11-24T03:01:10.749Z,100824.41
2022-11-24T03:03:38.382Z,100828.34
2022-11-24T03:06:05.893Z,100822.13
2022-11-24T03:08:33.233Z,100830.09
2022-11-24T03:11:01.647Z,100833.31
2022-11-24T03:13:29.012Z,100836.44
2022-11-24T03:15:56.244Z,100846.72
2022-11-24T03:18:24.838Z,100853.50
2022-11-24T03:20:52.034Z,100857.47
2022-11-24T03:23:19.213Z,100861.81
2022-11-24T03:25:46.381Z,100862.69
2022-11-24T03:28:13.624Z,100876.19
2022-11-24T03:30:40.923Z,100893.94
2022-11-24T03:33:08.243Z,100900.97
2022-11-24T03:35:36.884Z,100915.53
2022-11-24T03:38:04.053Z,100918.69
2022-11-24T03:40:31.257Z,100924.53
2022-11-24T03:42:58.509Z,100927.69
2022-11-24T03:48:13.248Z,100962.00
2022-11-24T03:50:41.866Z,100976.25
2022-11-24T03:53:09.426Z,100978.69
2022-11-24T03:55:36.630Z,100988.19
2022-11-24T03:58:03.828Z,101003.59
2022-11-24T04:00:31.037Z,101013.50
2022-11-24T04:02:58.341Z,101014.34
2022-11-24T04:05:25.558Z,101019.91
2022-11-24T04:07:56.805Z,101041.22
2022-11-24T04:10:24.346Z,101052.72
2022-11-24T04:12:51.601Z,101064.53
2022-11-24T04:15:19.651Z,101080.41
2022-11-24T04:17:49.178Z,101092.63
2022-11-24T04:20:17.275Z,101107.25
2022-11-24T04:22:44.573Z,101132.53
2022-11-24T04:25:13.231Z,101149.13
2022-11-24T04:27:40.426Z,101167.28
2022-11-24T04:30:08.547Z,101181.91
2022-11-24T04:32:35.732Z,101196.88
2022-11-24T04:35:03.828Z,101213.06
2022-11-24T04:37:31.124Z,101226.16
2022-11-24T04:39:58.348Z,101241.19
2022-11-24T04:42:26.907Z,101261.72
2022-11-24T04:44:54.107Z,101276.38
2022-11-24T04:47:23.948Z,101289.44
2022-11-24T04:49:52.992Z,101309.22
2022-11-24T04:52:22.374Z,101325.81
2022-11-24T04:54:50.341Z,101340.81
2022-11-24T04:57:18.984Z,101363.75
2022-11-24T04:59:48.466Z,101376.78
2022-11-24T05:02:15.627Z,101397.75
2022-11-24T05:04:42.944Z,101418.31
2022-11-24T05:07:16.445Z,101442.41
2022-11-24T05:09:58.855Z,101461.38
2022-11-24T05:12:27.644Z,101484.31
2022-11-24T05:14:56.408Z,101508.81
2022-11-24T05:17:23.629Z,101532.94
2022-11-24T05:19:50.843Z,101553.50
2022-11-24T05:22:18.056Z,101573.25
2022-11-24T05:24:45.272Z,101586.31
2022-11-24T05:27:12.596Z,101601.72
2022-11-24T05:29:39.817Z,101627.03
2022-11-24T05:32:08.432Z,101638.91
2022-11-24T05:34:35.956Z,101656.28
2022-11-24T05:37:03.425Z,101667.75
2022-11-24T05:39:31.520Z,101677.63
2022-11-24T05:41:59.171Z,101699.41
2022-11-24T05:44:26.386Z,101700.16
2022-11-24T05:46:53.617Z,101705.72
2022-11-24T05:49:22.324Z,101721.53
2022-11-24T05:51:49.624Z,101729.81
2022-11-24T05:54:16.983Z,101746.03
2022-11-24T05:56:44.230Z,101749.16
2022-11-24T05:59:11.419Z,101759.41
2022-11-24T06:01:38.746Z,101771.66
2022-11-24T06:04:06.037Z,101771.25
2022-11-24T06:06:34.625Z,101793.00
2022-11-24T06:09:01.829Z,101791.03
2022-11-24T06:11:29.050Z,101799.72
2022-11-24T06:13:56.417Z,101816.75
2022-11-24T06:16:24.167Z,101823.06
2022-11-24T06:18:51.493Z,101832.19
2022-11-24T06:21:18.785Z,101830.19
2022-11-24T06:23:49.063Z,101847.19
2022-11-24T06:26:16.278Z,101853.91
2022-11-24T06:28:43.601Z,101865.84
2022-11-24T06:31:11.282Z,101871.69
2022-11-24T06:33:39.001Z,101873.69
2022-11-24T06:36:09.700Z,101875.66
2022-11-24T06:38:36.976Z,101885.53
2022-11-24T06:41:08.007Z,101898.94
2022-11-24T06:43:36.193Z,101909.97
2022-11-24T06:46:04.213Z,101907.66
2022-11-24T06:48:31.863Z,101925.03
2022-11-24T06:50:59.940Z,101932.16
2022-11-24T06:53:30.313Z,101939.22
2022-11-24T06:55:58.716Z,101943.63
2022-11-24T06:58:27.703Z,101951.94
2022-11-24T07:00:55.001Z,101965.75
2022-11-24T07:03:22.467Z,101981.94
2022-11-24T07:05:49.775Z,101989.81
2022-11-24T07:08:18.096Z,101993.75
2022-11-24T07:10:45.536Z,101995.78
2022-11-24T07:13:12.777Z,102015.91
2022-11-24T07:15:41.458Z,102026.25
2022-11-24T07:18:08.637Z,102038.13
2022-11-24T07:20:36.028Z,102038.47
2022-11-24T07:23:03.489Z,102048.03
2022-11-24T07:25:30.682Z,102057.50
2022-11-24T07:27:58.149Z,102065.81
2022-11-24T07:30:25.890Z,102080.09
2022-11-24T07:32:58.884Z,102082.44
2022-11-24T07:35:26.352Z,102098.72
2022-11-24T07:37:54.791Z,102122.19
2022-11-24T07:40:22.249Z,102132.56
2022-11-24T07:42:49.620Z,102140.56
2022-11-24T07:45:16.939Z,102140.59
2022-11-24T07:47:44.186Z,102152.53
2022-11-24T07:50:13.209Z,102162.84
2022-11-24T07:52:40.621Z,102169.22
2022-11-24T07:55:08.943Z,102170.81
2022-11-24T07:57:36.400Z,102177.19
2022-11-24T08:00:05.325Z,102184.41
2022-11-24T08:02:33.094Z,102189.56
2022-11-24T08:05:00.315Z,102191.19
2022-11-24T08:07:28.961Z,102181.19
2022-11-24T08:09:56.238Z,102189.09
2022-11-24T08:12:23.509Z,102189.09
2022-11-24T08:14:51.222Z,102183.13
2022-11-24T08:17:18.772Z,102185.06
2022-11-24T08:19:46.367Z,102185.09
2022-11-24T08:22:13.651Z,102186.66
2022-11-24T08:24:42.521Z,102191.94
2022-11-24T08:27:09.676Z,102185.59
2022-11-24T08:29:36.933Z,102182.88
2022-11-24T08:32:04.657Z,102178.94
2022-11-24T08:34:32.107Z,102184.13
2022-11-24T08:36:59.743Z,102183.00
2022-11-24T08:39:26.929Z,102181.84
2022-11-24T08:41:55.576Z,102182.66
2022-11-24T08:44:23.078Z,102186.66
2022-11-24T08:46:50.462Z,102183.09
2022-11-24T08:49:17.845Z,102173.63
2022-11-24T08:51:45.073Z,102174.91
2022-11-24T08:54:12.321Z,102172.53
2022-11-24T08:56:39.642Z,102151.94
2022-11-24T08:59:08.284Z,102142.00
2022-11-24T09:01:35.673Z,102144.03
2022-11-24T09:04:03.208Z,102138.97
2022-11-24T09:06:30.548Z,102127.94
2022-11-24T09:08:58.695Z,102123.31
2022-11-24T09:11:26.663Z,102104.28
2022-11-24T09:13:54.696Z,102070.97
2022-11-24T09:16:25.566Z,102045.59
2022-11-24T09:18:56.630Z,102020.63
2022-11-24T09:21:24.014Z,101979.75
2022-11-24T09:23:52.700Z,101935.38
2022-11-24T09:26:22.059Z,101889.31
2022-11-24T09:28:50.104Z,101840.06
2022-11-24T09:31:18.109Z,101792.25
2022-11-24T09:33:47.116Z,101734.22
2022-11-24T09:36:15.164Z,101686.50
2022-11-24T09:38:42.418Z,101634.41
2022-11-24T09:41:38.258Z,101591.91
2022-11-24T09:44:11.323Z,101561.31
2022-11-24T09:46:48.390Z,101545.31
2022-11-24T09:49:29.590Z,101508.41
2022-11-24T09:51:58.220Z,101483.75
2022-11-24T09:54:29.761Z,101447.97
2022-11-24T09:57:00.548Z,101408.19
2022-11-24T09:59:28.454Z,101392.13
2022-11-24T10:01:55.900Z,101361.91
2022-11-24T10:04:29.217Z,101336.28
2022-11-24T10:07:07.162Z,101312.06
2022-11-24T10:09:52.217Z,101281.50
2022-11-24T10:12:41.009Z,101258.56
2022-11-24T10:15:30.814Z,101235.84
2022-11-24T10:18:16.715Z,101202.63
2022-11-24T10:20:58.510Z,101176.88
2022-11-24T10:23:41.237Z,101163.31
2022-11-24T10:26:18.067Z,101149.22
2022-11-24T10:28:51.565Z,101140.66
2022-11-24T10:31:24.891Z,101129.22
2022-11-24T10:33:52.317Z,101134.38
2022-11-24T10:36:28.178Z,101127.22
2022-11-24T10:39:03.297Z,101113.28
2022-11-24T10:41:42.703Z,101115.91
2022-11-24T10:44:13.509Z,101102.22
2022-11-24T10:46:41.182Z,101076.25
2022-11-24T10:49:17.837Z,101061.94
2022-11-24T10:51:58.858Z,101058.66
2022-11-24T10:54:26.104Z,101034.56
2022-11-24T10:56:54.765Z,101007.03
2022-11-24T10:59:30.707Z,100994.91
2022-11-24T11:01:58.837Z,100984.13
2022-11-24T11:04:27.849Z,100975.03
2022-11-24T11:07:17.784Z,100968.41
2022-11-24T11:09:45.294Z,100974.00
2022-11-24T11:12:42.897Z,100962.25
2022-11-24T11:15:27.264Z,100960.09
2022-11-24T11:17:58.194Z,100949.81
2022-11-24T11:20:29.886Z,100927.34
2022-11-24T11:23:01.493Z,100933.66
2022-11-24T11:25:32.547Z,100953.75
2022-11-24T11:28:21.685Z,100954.69
2022-11-24T11:34:16.025Z,100941.41
2022-11-24T11:36:45.067Z,100946.69
2022-11-24T11:39:23.726Z,100959.91
2022-11-24T11:41:56.676Z,100956.75
2022-11-24T11:44:32.589Z,100961.28
2022-11-24T11:47:09.133Z,100977.22
2022-11-24T11:49:38.829Z,100971.91
2022-11-24T11:52:27.795Z,100979.97
2022-11-24T11:55:27.536Z,100995.00
2022-11-24T11:58:07.258Z,100992.84
2022-11-24T12:00:39.409Z,100984.03
2022-11-24T12:03:42.616Z,100991.31
2022-11-24T12:06:24.406Z,101004.59
2022-11-24T12:09:19.862Z,101016.03
2022-11-24T12:12:03.319Z,101020.38
2022-11-24T12:14:44.042Z,101028.66
2022-11-24T12:17:21.149Z,101037.16
2022-11-24T12:20:03.189Z,101045.66
2022-11-24T12:22:40.139Z,101052.22
2022-11-24T12:25:22.728Z,101043.69
2022-11-24T12:28:01.228Z,101047.59
2022-11-24T12:30:37.917Z,101048.56
2022-11-24T12:33:20.319Z,101056.41
2022-11-24T12:35:52.583Z,101061.44
2022-11-24T12:38:31.016Z,101061.19
2022-11-24T12:41:40.518Z,101063.03
2022-11-24T12:44:19.276Z,101061.34
2022-11-24T12:46:56.978Z,101061.44
2022-11-24T12:49:33.890Z,101064.59
2022-11-24T12:52:05.551Z,101067.03
2022-11-24T12:54:39.751Z,101062.13
2022-11-24T12:57:13.158Z,101056.53
2022-11-24T12:59:51.382Z,101057.78
2022-11-24T13:02:30.763Z,101057.09
2022-11-24T13:05:08.316Z,101068.94
2022-11-24T13:07:43.651Z,101063.63
2022-11-24T13:10:54.831Z,101073.81
2022-11-24T13:13:26.057Z,101079.59
2022-11-24T13:19:09.129Z,101086.34
2022-11-24T13:21:59.445Z,101085.66
2022-11-24T13:24:28.596Z,101087.31
2022-11-24T13:27:25.442Z,101091.41
2022-11-24T13:29:53.434Z,101097.16
2022-11-24T13:32:59.379Z,101094.53
2022-11-24T13:35:28.885Z,101091.81
2022-11-24T13:37:56.161Z,101094.03
2022-11-24T13:40:41.023Z,101102.88
2022-11-24T13:43:20.753Z,101083.06
2022-11-24T13:45:49.165Z,101066.94
2022-11-24T13:48:49.493Z,101063.25
2022-11-24T13:51:23.390Z,101050.28
2022-11-24T13:53:52.703Z,101048.59
2022-11-24T13:56:24.535Z,101027.53
2022-11-24T13:58:55.253Z,101031.28
2022-11-24T14:01:24.345Z,101028.47
2022-11-24T14:06:54.189Z,101042.94
2022-11-24T14:09:26.694Z,101048.75
2022-11-24T14:11:59.884Z,101044.69
2022-11-24T14:14:27.548Z,101054.88
2022-11-24T14:17:12.518Z,101058.69
2022-11-24T14:19:39.921Z,101058.56
2022-11-24T14:22:15.739Z,101063.41
2022-11-24T14:24:43.804Z,101067.75
2022-11-24T14:27:15.213Z,101067.38
2022-11-24T14:29:54.451Z,101071.16
2022-11-24T14:32:21.855Z,101075.00
2022-11-24T14:34:49.308Z,101084.13
2022-11-24T14:37:18.421Z,101089.16
2022-11-24T14:39:45.922Z,101096.06
2022-11-24T14:42:18.328Z,101102.53
2022-11-24T14:44:49.284Z,101104.66
2022-11-24T14:47:30.468Z,101109.97
2022-11-24T14:50:08.184Z,101105.88
2022-11-24T14:52:44.651Z,101100.72
2022-11-24T14:55:24.880Z,101108.38
2022-11-24T14:57:52.298Z,101114.69
2022-11-24T15:00:26.884Z,101111.19
2022-11-24T15:02:56.059Z,101129.03
2022-11-24T15:05:25.398Z,101132.97
2022-11-24T15:08:02.449Z,101140.84
2022-11-24T15:10:34.943Z,101144.91
2022-11-24T15:13:05.203Z,101158.28
2022-11-24T15:15:35.252Z,101159.63
2022-11-24T15:18:04.493Z,101168.94
2022-11-24T15:20:33.896Z,101180.69
2022-11-24T15:23:25.146Z,101198.22
2022-11-24T15:25:53.341Z,101203.53
2022-11-24T15:28:20.810Z,101214.72
2022-11-24T15:30:48.017Z,101223.16
2022-11-24T15:33:17.226Z,101234.84
2022-11-24T15:35:45.164Z,101241.91
2022-11-24T15:38:12.740Z,101249.50
2022-11-24T15:40:43.880Z,101258.63
2022-11-24T15:43:28.378Z,101258.22
2022-11-24T15:45:56.004Z,101279.84
2022-11-24T15:48:23.455Z,101290.03
2022-11-24T15:50:51.862Z,101299.66
2022-11-24T15:53:21.318Z,101304.41
2022-11-24T15:55:50.563Z,101311.66
2022-11-24T15:58:18.378Z,101323.63
2022-11-24T16:00:45.909Z,101337.91
2022-11-24T16:03:44.944Z,101345.88
2022-11-24T16:06:00.905Z,101341.22
2022-11-24T16:08:28.117Z,101354.34
2022-11-24T16:10:56.740Z,101369.06
2022-11-24T16:13:24.124Z,101378.13
2022-11-24T16:15:51.441Z,101384.88
2022-11-24T16:18:18.719Z,101392.88
2022-11-24T16:20:45.952Z,101405.56
2022-11-24T16:23:13.299Z,101427.34
2022-11-24T16:25:40.538Z,101436.47
2022-11-24T16:28:09.139Z,101438.53
2022-11-24T16:30:36.393Z,101454.03
2022-11-24T16:33:03.942Z,101469.09
2022-11-24T16:35:31.190Z,101471.88
2022-11-24T16:37:58.484Z,101477.03
2022-11-24T16:40:25.991Z,101487.03
2022-11-24T16:42:53.211Z,101498.50
2022-11-24T16:45:24.702Z,101514.81
2022-11-24T16:47:51.984Z,101518.41
2022-11-24T16:50:19.187Z,101531.00
2022-11-24T16:52:46.441Z,101540.88
2022-11-24T16:55:13.634Z,101549.97
2022-11-24T16:57:40.922Z,101551.56
2022-11-24T17:00:09.581Z,101548.81
2022-11-24T17:02:38.328Z,101571.47
2022-11-24T17:05:06.406Z,101561.97
2022-11-24T17:07:33.723Z,101569.88
2022-11-24T17:10:00.926Z,101587.75
2022-11-24T17:12:28.219Z,101592.91
2022-11-24T17:15:24.492Z,101602.03
2022-11-24T17:18:08.376Z,101599.28
2022-11-24T17:20:31.381Z,101608.38
2022-11-24T17:22:58.668Z,101619.09
2022-11-24T17:25:25.860Z,101622.28
2022-11-24T17:27:53.469Z,101621.91
2022-11-24T17:30:20.785Z,101630.66
2022-11-24T17:32:53.648Z,101633.41
2022-11-24T17:35:23.945Z,101646.88
2022-11-24T17:37:51.175Z,101646.88
2022-11-24T17:40:28.352Z,101661.91
2022-11-24T17:42:58.019Z,101661.16
2022-11-24T17:45:25.504Z,101673.81
2022-11-24T17:47:54.862Z,101686.50
2022-11-24T17:50:25.699Z,101688.88
2022-11-24T17:52:53.954Z,101695.59
2022-11-24T17:55:21.505Z,101700.31
2022-11-24T17:57:48.673Z,101709.06
2022-11-24T18:00:16.740Z,101708.28
2022-11-24T18:02:43.929Z,101714.63
2022-11-24T18:05:12.470Z,101708.66
2022-11-24T18:07:39.707Z,101724.50
2022-11-24T18:10:07.736Z,101723.69
2022-11-24T18:12:34.981Z,101733.59
2022-11-24T18:15:02.276Z,101740.72
2022-11-24T18:17:29.605Z,101744.69
2022-11-24T18:19:56.790Z,101741.53
2022-11-24T18:22:50.092Z,101752.59
2022-11-24T18:25:12.838Z,101760.91
2022-11-24T18:27:40.036Z,101768.03
2022-11-24T18:30:08.317Z,101766.47
2022-11-24T18:32:35.596Z,101764.88
2022-11-24T18:35:02.866Z,101771.59
2022-11-24T18:37:31.660Z,101773.19
2022-11-24T18:39:59.024Z,101779.91
2022-11-24T18:42:26.788Z,101775.16
2022-11-24T18:44:54.396Z,101788.59
2022-11-24T18:47:21.985Z,101778.31
2022-11-24T18:49:49.201Z,101796.53
2022-11-24T18:52:16.458Z,101792.59
2022-11-24T18:54:45.009Z,101791.00
2022-11-24T18:57:12.204Z,101805.22
2022-11-24T18:59:39.489Z,101810.00
2022-11-24T19:02:06.723Z,101800.47
2022-11-24T19:04:34.112Z,101806.81
2022-11-24T19:07:01.659Z,101798.47
2022-11-24T19:09:28.892Z,101809.59
2022-11-24T19:11:57.447Z,101807.22
2022-11-24T19:14:24.686Z,101813.97
2022-11-24T19:16:52.027Z,101802.91
2022-11-24T19:19:19.291Z,101794.97
2022-11-24T19:21:46.507Z,101805.66
2022-11-24T19:24:13.709Z,101801.28
2022-11-24T19:26:41.066Z,101798.88
2022-11-24T19:29:09.987Z,101794.13
2022-11-24T19:31:38.039Z,101800.47
2022-11-24T19:34:05.703Z,101798.09
2022-11-24T19:36:32.904Z,101796.47
2022-11-24T19:39:00.174Z,101796.44
2022-11-24T19:41:29.824Z,101798.81
2022-11-24T19:43:57.627Z,101804.72
2022-11-24T19:46:28.055Z,101805.97
2022-11-24T19:48:56.549Z,101803.94
2022-11-24T19:51:25.282Z,101815.41
2022-11-24T19:53:53.330Z,101823.72
2022-11-24T19:56:22.389Z,101828.00
2022-11-24T19:58:50.820Z,101843.78
2022-11-24T20:01:20.397Z,101850.13
2022-11-24T20:03:55.071Z,101857.63
2022-11-24T20:06:22.329Z,101873.78
2022-11-24T20:08:49.527Z,101877.31
2022-11-24T20:11:18.413Z,101887.59
2022-11-24T20:13:47.304Z,101897.81
2022-11-24T20:16:16.087Z,101903.34
2022-11-24T20:18:45.467Z,101913.97
2022-11-24T20:21:15.936Z,101919.13
2022-11-24T20:23:44.614Z,101939.31
2022-11-24T20:26:13.741Z,101949.94
2022-11-24T20:28:41.640Z,101964.94
2022-11-24T20:31:11.604Z,101980.34
2022-11-24T20:33:39.017Z,101997.31
2022-11-24T20:36:07.970Z,102015.91
2022-11-24T20:38:37.601Z,102027.00
2022-11-24T20:41:09.189Z,102043.19
2022-11-24T20:43:37.361Z,102056.22
2022-11-24T20:46:07.127Z,102070.44
2022-11-24T20:48:35.488Z,102088.63
2022-11-24T20:51:03.708Z,102113.53
2022-11-24T20:53:30.988Z,102126.56
2022-11-24T20:56:06.116Z,102143.47
2022-11-24T20:58:34.817Z,102171.22
2022-11-24T21:01:06.360Z,102187.44
2022-11-24T21:03:38.356Z,102211.91
2022-11-24T21:06:09.090Z,102228.50
2022-11-24T21:08:37.473Z,102246.63
2022-11-24T21:11:07.069Z,102268.81
2022-11-24T21:13:35.721Z,102290.09
2022-11-24T21:16:11.848Z,102301.28
2022-11-24T21:18:39.252Z,102323.72
2022-11-24T21:21:07.076Z,102333.59
2022-11-24T21:23:34.298Z,102347.84
2022-11-24T21:26:05.554Z,102367.16
2022-11-24T21:28:34.935Z,102375.38
2022-11-24T21:31:06.054Z,102383.19
2022-11-24T21:33:33.597Z,102398.97
2022-11-24T21:36:01.637Z,102411.59
2022-11-24T21:38:29.376Z,102427.44
2022-11-24T21:40:59.527Z,102433.78
2022-11-24T21:43:27.748Z,102440.03
2022-11-24T21:46:00.450Z,102452.22
2022-11-24T21:48:27.912Z,102460.81
2022-11-24T21:50:57.527Z,102467.94
2022-11-24T21:53:24.661Z,102483.31
2022-11-24T21:55:55.494Z,102488.84
2022-11-24T21:58:23.118Z,102496.34
2022-11-24T22:00:50.827Z,102506.53
2022-11-24T22:03:20.264Z,102513.25
2022-11-24T22:05:58.030Z,102525.19
2022-11-24T22:08:27.423Z,102523.56
2022-11-24T22:11:00.565Z,102533.75
2022-11-24T22:13:27.984Z,102541.03
2022-11-24T22:16:06.713Z,102550.06
2022-11-24T22:18:37.487Z,102555.94
2022-11-24T22:21:06.517Z,102566.00
2022-11-24T22:23:34.941Z,102575.81
2022-11-24T22:26:02.989Z,102585.28
2022-11-24T22:28:31.197Z,102580.50
2022-11-24T22:30:58.404Z,102595.91
2022-11-24T22:33:25.577Z,102600.84
2022-11-24T22:35:57.469Z,102598.09
2022-11-24T22:38:24.848Z,102593.75
2022-11-24T22:40:52.179Z,102608.72
2022-11-24T22:43:22.927Z,102603.84
2022-11-24T22:45:50.558Z,102608.56
2022-11-24T22:48:17.855Z,102614.09
2022-11-24T22:50:45.088Z,102612.94
2022-11-24T22:53:13.586Z,102610.25
2022-11-24T22:55:40.847Z,102619.13
2022-11-24T22:58:08.095Z,102627.44
2022-11-24T23:00:35.300Z,102624.66
2022-11-24T23:03:02.647Z,102627.75
2022-11-24T23:05:32.653Z,102626.53
2022-11-24T23:07:59.892Z,102626.47
2022-11-24T23:10:28.496Z,102626.47
2022-11-24T23:12:55.701Z,102631.09
2022-11-24T23:15:22.844Z,102627.19
2022-11-24T23:17:50.040Z,102630.22
2022-11-24T23:20:17.386Z,102625.84
2022-11-24T23:22:44.839Z,102632.56
2022-11-24T23:25:12.049Z,102635.75
2022-11-24T23:27:40.609Z,102631.75
2022-11-24T23:30:08.673Z,102631.66
2022-11-24T23:32:35.943Z,102628.97
2022-11-24T23:35:03.347Z,102631.66
2022-11-24T23:37:52.117Z,102641.50
2022-11-24T23:40:17.946Z,102647.06
2022-11-24T23:42:47.987Z,102650.72
2022-11-24T23:45:15.365Z,102651.97
2022-11-24T23:47:42.560Z,102657.72
2022-11-24T23:50:10.268Z,102661.34
2022-11-24T23:52:37.466Z,102639.50
2022-11-24T23:55:05.660Z,102650.13
2022-11-24T23:57:32.850Z,102643.72
